Time;durP1;ratioP1;P1;durP2;ratioP2;P2;SDS_P1;SDS_P2;PMS_P1;PMS_P2;Temp;Humidity;BMP_temperature;BMP_pressure;BME280_temperature;BME280_humidity;BME280_pressure;Samples;Min_cycle;Max_cycle;Signal;HPM_P1;HPM_P2
2021/11/28 00:01:19;;;;;;;10.65;5.78;;;;;;;;;;5032385;28;20203;-79
2021/11/28 00:03:46;;;;;;;7.80;5.93;;;;;;;;;;5034163;28;20179;-81
2021/11/28 00:06:25;;;;;;;14.00;7.93;;;;;;;;;;5034073;28;20212;-77
2021/11/28 00:11:36;;;;;;;18.60;7.22;;;;;;;;;;5033908;28;20215;-80
2021/11/28 00:16:29;;;;;;;9.88;6.55;;;;;;;;;;5033939;28;20649;-79
2021/11/28 00:18:55;;;;;;;17.58;7.47;;;;;;;;;;5033800;28;20255;-81
2021/11/28 00:21:21;;;;;;;23.13;8.93;;;;;;;;;;5033391;28;20539;-80
2021/11/28 00:23:47;;;;;;;14.00;6.93;;;;;;;;;;5033526;28;20185;-78
2021/11/28 00:26:14;;;;;;;7.03;5.10;;;;;;;;;;5033609;28;20206;-79
2021/11/28 00:28:41;;;;;;;9.45;5.10;;;;;;;;;;5033609;28;20185;-78
2021/11/28 00:31:07;;;;;;;11.25;6.72;;;;;;;;;;5033557;28;20197;-79
2021/11/28 00:33:33;;;;;;;11.45;5.10;;;;;;;;;;5033533;28;20185;-82
2021/11/28 00:35:59;;;;;;;12.45;5.93;;;;;;;;;;5032403;28;20197;-77
2021/11/28 00:38:25;;;;;;;10.48;4.82;;;;;;;;;;5033630;28;20195;-79
2021/11/28 00:40:52;;;;;;;8.75;5.85;;;;;;;;;;5033174;28;20736;-81
2021/11/28 00:43:19;;;;;;;7.22;5.32;;;;;;;;;;5033552;28;20186;-80
2021/11/28 00:45:45;;;;;;;26.48;8.98;;;;;;;;;;5033221;28;20268;-79
2021/11/28 00:48:11;;;;;;;27.88;8.93;;;;;;;;;;5033443;28;20224;-78
2021/11/28 00:51:22;;;;;;;21.42;7.03;;;;;;;;;;5032958;28;20194;-80
2021/11/28 00:53:26;;;;;;;28.75;12.15;;;;;;;;;;5033047;28;20190;-80
2021/11/28 00:55:52;;;;;;;38.65;10.25;;;;;;;;;;5033142;28;20173;-81
2021/11/28 00:58:18;;;;;;;15.45;7.10;;;;;;;;;;5033207;28;20185;-80
2021/11/28 01:00:44;;;;;;;8.20;5.57;;;;;;;;;;5032731;28;20654;-79
2021/11/28 01:03:10;;;;;;;10.65;6.20;;;;;;;;;;5033144;28;20460;-79
2021/11/28 01:05:36;;;;;;;10.48;5.80;;;;;;;;;;5033235;28;20286;-80
2021/11/28 01:08:02;;;;;;;10.70;5.28;;;;;;;;;;5033053;28;20207;-81
2021/11/28 01:10:28;;;;;;;8.40;4.85;;;;;;;;;;5032737;28;20197;-80
2021/11/28 01:12:55;;;;;;;16.42;6.70;;;;;;;;;;5033068;28;20230;-80
2021/11/28 01:15:21;;;;;;;33.20;11.27;;;;;;;;;;5033157;28;20198;-79
2021/11/28 01:17:47;;;;;;;32.15;10.65;;;;;;;;;;5032945;28;20194;-81
2021/11/28 01:20:13;;;;;;;29.52;10.30;;;;;;;;;;5034954;28;20736;-78
2021/11/28 01:22:40;;;;;;;23.20;7.22;;;;;;;;;;5037163;28;20185;-80
2021/11/28 01:25:07;;;;;;;21.42;9.13;;;;;;;;;;5037066;28;20174;-81
2021/11/28 01:27:34;;;;;;;21.23;6.43;;;;;;;;;;5035759;28;20686;-79
2021/11/28 01:30:00;;;;;;;23.70;7.35;;;;;;;;;;5036486;28;20203;-80
2021/11/28 01:32:26;;;;;;;12.38;6.25;;;;;;;;;;5036874;28;20181;-79
2021/11/28 01:34:52;;;;;;;9.68;6.07;;;;;;;;;;5035826;28;20193;-78
2021/11/28 01:37:18;;;;;;;10.73;5.77;;;;;;;;;;5037017;28;20525;-80
2021/11/28 01:39:46;;;;;;;7.97;5.45;;;;;;;;;;5036439;28;20461;-79
2021/11/28 01:42:12;;;;;;;13.80;5.45;;;;;;;;;;5036730;28;20177;-80
2021/11/28 01:44:38;;;;;;;9.45;5.00;;;;;;;;;;5037035;28;20192;-80
2021/11/28 01:47:04;;;;;;;9.80;5.57;;;;;;;;;;5036721;28;20209;-81
2021/11/28 01:49:30;;;;;;;9.35;5.38;;;;;;;;;;5036383;28;20447;-78
2021/11/28 01:51:56;;;;;;;8.07;4.90;;;;;;;;;;5036732;28;20207;-81
2021/11/28 01:54:22;;;;;;;11.70;5.75;;;;;;;;;;5036621;28;20247;-80
2021/11/28 01:56:49;;;;;;;7.65;5.30;;;;;;;;;;5036725;28;20217;-78
2021/11/28 01:59:16;;;;;;;7.55;4.80;;;;;;;;;;5036287;28;20175;-79
2021/11/28 02:01:42;;;;;;;10.13;5.15;;;;;;;;;;5036272;28;20250;-81
2021/11/28 02:04:09;;;;;;;10.05;5.45;;;;;;;;;;5036454;28;20180;-80
2021/11/28 02:06:37;;;;;;;9.73;5.93;;;;;;;;;;5036184;28;20241;-78
2021/11/28 02:09:04;;;;;;;8.10;6.10;;;;;;;;;;5035100;28;20218;-80
2021/11/28 02:11:31;;;;;;;6.40;5.70;;;;;;;;;;5034845;28;20209;-80
2021/11/28 02:13:57;;;;;;;11.27;5.50;;;;;;;;;;5036274;28;20179;-81
2021/11/28 02:16:23;;;;;;;9.60;5.68;;;;;;;;;;5034685;28;20225;-80
2021/11/28 02:18:50;;;;;;;6.88;5.07;;;;;;;;;;5036160;28;20254;-77
2021/11/28 02:21:16;;;;;;;8.75;5.63;;;;;;;;;;5035712;28;20223;-77
2021/11/28 02:23:43;;;;;;;7.07;4.90;;;;;;;;;;5036081;28;20185;-82
2021/11/28 02:26:10;;;;;;;9.35;5.15;;;;;;;;;;5035846;28;20211;-79
2021/11/28 02:28:38;;;;;;;16.23;5.60;;;;;;;;;;5035789;28;20175;-79
2021/11/28 02:31:04;;;;;;;7.25;5.40;;;;;;;;;;5034859;28;20263;-78
2021/11/28 02:33:31;;;;;;;10.88;5.28;;;;;;;;;;5036089;28;20172;-78
2021/11/28 02:35:57;;;;;;;10.00;5.65;;;;;;;;;;5018425;28;20213;-77
2021/11/28 02:38:24;;;;;;;8.60;5.57;;;;;;;;;;5035836;28;20213;-81
2021/11/28 02:40:50;;;;;;;7.85;5.20;;;;;;;;;;5035228;28;20243;-77
2021/11/28 02:43:16;;;;;;;10.43;5.68;;;;;;;;;;5035858;28;20189;-79
2021/11/28 02:45:42;;;;;;;9.90;5.57;;;;;;;;;;5034619;28;20187;-81
2021/11/28 02:48:10;;;;;;;7.18;5.43;;;;;;;;;;5035523;28;20211;-78
2021/11/28 02:50:36;;;;;;;9.48;5.95;;;;;;;;;;5035184;28;20315;-81
2021/11/28 02:53:04;;;;;;;8.98;5.78;;;;;;;;;;5035453;28;20630;-78
2021/11/28 02:55:38;;;;;;;6.70;5.40;;;;;;;;;;5034237;28;20559;-79
2021/11/28 02:58:05;;;;;;;8.55;5.93;;;;;;;;;;5035552;28;20200;-80
2021/11/28 03:00:32;;;;;;;8.15;6.13;;;;;;;;;;5035158;28;20219;-78
2021/11/28 03:02:58;;;;;;;8.07;6.20;;;;;;;;;;5033929;28;20181;-81
2021/11/28 03:05:24;;;;;;;9.00;5.40;;;;;;;;;;5035318;28;20186;-80
2021/11/28 03:07:50;;;;;;;9.38;5.90;;;;;;;;;;5033975;28;20215;-79
2021/11/28 03:10:33;;;;;;;5.90;5.32;;;;;;;;;;5034770;28;20224;-78
2021/11/28 03:13:00;;;;;;;11.90;5.55;;;;;;;;;;5035001;28;20258;-78
2021/11/28 03:15:26;;;;;;;8.73;4.50;;;;;;;;;;5035181;28;20169;-81
2021/11/28 03:17:52;;;;;;;8.60;4.95;;;;;;;;;;5034988;28;20562;-78
2021/11/28 03:20:19;;;;;;;5.10;4.03;;;;;;;;;;5033332;28;20590;-78
2021/11/28 03:22:49;;;;;;;7.13;3.85;;;;;;;;;;5034885;28;20180;-78
2021/11/28 03:25:16;;;;;;;4.80;3.88;;;;;;;;;;5033705;28;20228;-81
2021/11/28 03:27:43;;;;;;;5.10;4.00;;;;;;;;;;5034782;28;20240;-80
2021/11/28 03:30:10;;;;;;;6.53;4.80;;;;;;;;;;5034504;28;20239;-78
2021/11/28 03:32:36;;;;;;;6.78;3.92;;;;;;;;;;5034838;28;20300;-79
2021/11/28 03:35:02;;;;;;;4.30;3.72;;;;;;;;;;5034605;28;20279;-79
2021/11/28 03:37:30;;;;;;;4.82;3.95;;;;;;;;;;5033379;28;20205;-78
2021/11/28 03:39:56;;;;;;;5.70;4.18;;;;;;;;;;5034301;28;20592;-81
2021/11/28 03:42:22;;;;;;;5.30;3.95;;;;;;;;;;5033642;28;20302;-78
2021/11/28 03:44:48;;;;;;;6.87;4.23;;;;;;;;;;5033529;28;20323;-79
2021/11/28 03:47:14;;;;;;;6.82;5.70;;;;;;;;;;5034288;28;20474;-78
2021/11/28 03:49:40;;;;;;;5.97;4.60;;;;;;;;;;5032757;28;20192;-79
2021/11/28 03:52:06;;;;;;;8.35;4.43;;;;;;;;;;5034667;28;20545;-79
2021/11/28 03:54:32;;;;;;;5.28;4.10;;;;;;;;;;5034518;28;20181;-78
2021/11/28 03:56:58;;;;;;;8.40;5.75;;;;;;;;;;5034478;28;20534;-80
2021/11/28 03:59:28;;;;;;;9.70;5.20;;;;;;;;;;5033963;28;20186;-78
2021/11/28 04:01:54;;;;;;;7.57;5.03;;;;;;;;;;5034225;28;20193;-79
2021/11/28 04:04:20;;;;;;;13.27;6.40;;;;;;;;;;5034293;28;20234;-78
2021/11/28 04:06:46;;;;;;;9.80;5.03;;;;;;;;;;5034074;28;20200;-78
2021/11/28 04:09:12;;;;;;;7.10;5.20;;;;;;;;;;5033744;28;20440;-79
2021/11/28 04:11:38;;;;;;;5.18;4.68;;;;;;;;;;5033915;28;20228;-78
2021/11/28 04:14:04;;;;;;;7.47;5.60;;;;;;;;;;5033971;28;20172;-79
2021/11/28 04:16:31;;;;;;;7.22;4.80;;;;;;;;;;5033924;28;20205;-79
2021/11/28 04:18:59;;;;;;;8.68;4.93;;;;;;;;;;5033951;28;20184;-79
2021/11/28 04:21:25;;;;;;;5.97;4.85;;;;;;;;;;5033347;28;20201;-80
2021/11/28 04:23:51;;;;;;;6.07;4.93;;;;;;;;;;5033866;28;20196;-77
2021/11/28 04:26:17;;;;;;;11.52;5.05;;;;;;;;;;5032392;28;20670;-80
2021/11/28 04:28:43;;;;;;;8.07;5.80;;;;;;;;;;5033717;28;20173;-77
2021/11/28 04:31:09;;;;;;;6.97;5.25;;;;;;;;;;5033401;28;20200;-78
2021/11/28 04:33:35;;;;;;;7.17;4.90;;;;;;;;;;5033405;28;20180;-78
2021/11/28 04:36:01;;;;;;;5.55;4.15;;;;;;;;;;5033574;28;20447;-78
2021/11/28 04:38:27;;;;;;;6.30;4.83;;;;;;;;;;5032621;28;20183;-77
2021/11/28 04:40:53;;;;;;;9.30;4.95;;;;;;;;;;5033233;28;20787;-80
2021/11/28 04:43:19;;;;;;;12.47;5.37;;;;;;;;;;5033534;28;20181;-79
2021/11/28 04:45:45;;;;;;;6.10;4.50;;;;;;;;;;5032217;28;20427;-78
2021/11/28 04:48:11;;;;;;;6.20;4.50;;;;;;;;;;5033377;28;20709;-77
2021/11/28 04:50:38;;;;;;;7.53;5.80;;;;;;;;;;5033005;28;20189;-77
2021/11/28 04:53:04;;;;;;;6.93;5.22;;;;;;;;;;5033178;28;20195;-77
2021/11/28 04:55:30;;;;;;;10.57;4.93;;;;;;;;;;5033307;28;20177;-79
2021/11/28 04:57:56;;;;;;;7.53;5.78;;;;;;;;;;5033090;28;20181;-78
2021/11/28 05:00:24;;;;;;;8.07;4.68;;;;;;;;;;5032963;28;20209;-78
2021/11/28 05:02:50;;;;;;;9.13;5.32;;;;;;;;;;5033282;28;20176;-81
2021/11/28 05:05:16;;;;;;;6.28;5.60;;;;;;;;;;5033533;28;20266;-77
2021/11/28 05:07:42;;;;;;;9.18;6.32;;;;;;;;;;5033232;28;20212;-77
2021/11/28 05:10:09;;;;;;;6.65;5.90;;;;;;;;;;5032688;28;20197;-78
2021/11/28 05:12:35;;;;;;;12.27;6.40;;;;;;;;;;5033350;28;20229;-79
2021/11/28 05:15:01;;;;;;;10.65;6.30;;;;;;;;;;5033186;28;20171;-80
2021/11/28 05:17:27;;;;;;;8.15;5.78;;;;;;;;;;5032973;28;20284;-78
2021/11/28 05:19:53;;;;;;;6.78;5.40;;;;;;;;;;5032550;28;20341;-79
2021/11/28 05:22:20;;;;;;;11.38;6.72;;;;;;;;;;5032908;28;20185;-77
2021/11/28 05:24:47;;;;;;;10.63;5.50;;;;;;;;;;5032919;28;20177;-81
2021/11/28 05:27:13;;;;;;;8.32;6.53;;;;;;;;;;5031640;28;20294;-77
2021/11/28 05:29:39;;;;;;;8.85;5.15;;;;;;;;;;5031322;28;20529;-77
2021/11/28 05:32:05;;;;;;;10.80;5.50;;;;;;;;;;5032754;28;20319;-80
2021/11/28 05:34:32;;;;;;;9.73;6.75;;;;;;;;;;5032885;28;20182;-79
2021/11/28 05:36:58;;;;;;;8.48;6.32;;;;;;;;;;5031656;28;20188;-80
2021/11/28 05:39:24;;;;;;;10.32;6.53;;;;;;;;;;5032704;28;20192;-80
2021/11/28 05:41:50;;;;;;;7.93;6.40;;;;;;;;;;5032865;28;20275;-77
2021/11/28 05:44:16;;;;;;;9.57;6.45;;;;;;;;;;5032770;28;20231;-79
2021/11/28 05:46:42;;;;;;;13.70;6.63;;;;;;;;;;5032630;28;20215;-77
2021/11/28 05:49:08;;;;;;;8.13;6.10;;;;;;;;;;5031534;28;20622;-79
2021/11/28 05:51:34;;;;;;;9.05;6.78;;;;;;;;;;5032460;28;20197;-79
2021/11/28 05:54:00;;;;;;;7.85;6.80;;;;;;;;;;5032935;28;20593;-78
2021/11/28 05:56:28;;;;;;;6.32;4.95;;;;;;;;;;5032975;28;20606;-78
2021/11/28 05:58:54;;;;;;;8.15;5.93;;;;;;;;;;5032979;28;20256;-79
2021/11/28 06:01:20;;;;;;;5.68;4.55;;;;;;;;;;5032300;28;20239;-77
2021/11/28 06:03:46;;;;;;;6.43;5.35;;;;;;;;;;5031486;28;20193;-79
2021/11/28 06:06:12;;;;;;;7.90;5.97;;;;;;;;;;5034361;28;20221;-76
2021/11/28 06:08:38;;;;;;;8.18;6.55;;;;;;;;;;5036572;28;20447;-79
2021/11/28 06:11:04;;;;;;;12.27;6.70;;;;;;;;;;5035986;28;20201;-79
2021/11/28 06:13:31;;;;;;;10.60;6.55;;;;;;;;;;5036302;28;20172;-78
2021/11/28 06:15:57;;;;;;;7.80;5.80;;;;;;;;;;5034904;28;20183;-79
2021/11/28 06:18:23;;;;;;;9.07;6.37;;;;;;;;;;5036104;28;20200;-80
2021/11/28 06:20:49;;;;;;;8.47;6.00;;;;;;;;;;5034599;28;20432;-80
2021/11/28 06:23:15;;;;;;;10.27;6.47;;;;;;;;;;5034827;28;20481;-80
2021/11/28 06:25:41;;;;;;;11.07;6.72;;;;;;;;;;5036062;28;20170;-80
2021/11/28 06:28:08;;;;;;;12.77;7.05;;;;;;;;;;5035960;28;20231;-76
2021/11/28 06:30:34;;;;;;;7.28;5.93;;;;;;;;;;5035471;28;20272;-77
2021/11/28 06:33:01;;;;;;;10.52;6.55;;;;;;;;;;5035898;28;20185;-78
2021/11/28 06:35:27;;;;;;;8.05;6.45;;;;;;;;;;5034499;28;20255;-79
2021/11/28 06:37:53;;;;;;;9.18;6.68;;;;;;;;;;5035797;28;20227;-78
2021/11/28 06:40:19;;;;;;;7.75;6.05;;;;;;;;;;5034061;28;20249;-77
2021/11/28 06:42:45;;;;;;;11.25;7.50;;;;;;;;;;5035569;28;20230;-78
2021/11/28 06:45:11;;;;;;;9.38;5.60;;;;;;;;;;5035863;28;20185;-78
2021/11/28 06:47:37;;;;;;;6.32;5.57;;;;;;;;;;5035744;28;20209;-79
2021/11/28 06:50:03;;;;;;;10.18;6.25;;;;;;;;;;5035227;28;20196;-79
2021/11/28 06:52:30;;;;;;;5.90;5.10;;;;;;;;;;5035400;28;20547;-80
2021/11/28 06:54:56;;;;;;;10.98;6.60;;;;;;;;;;5035594;28;20251;-79
2021/11/28 06:57:22;;;;;;;10.57;7.17;;;;;;;;;;5035480;28;20650;-80
2021/11/28 06:59:48;;;;;;;9.05;6.60;;;;;;;;;;5035124;28;20410;-77
2021/11/28 07:02:14;;;;;;;9.70;6.70;;;;;;;;;;5035438;28;20226;-80
2021/11/28 07:04:42;;;;;;;13.82;6.07;;;;;;;;;;5035303;28;20690;-79
2021/11/28 07:07:08;;;;;;;9.18;6.68;;;;;;;;;;5033976;28;20207;-80
2021/11/28 07:09:33;;;;;;;7.47;6.38;;;;;;;;;;5035135;28;20173;-79
2021/11/28 07:11:59;;;;;;;9.25;6.55;;;;;;;;;;5035272;28;20677;-77
2021/11/28 07:14:25;;;;;;;8.13;5.45;;;;;;;;;;5035161;28;20180;-76
2021/11/28 07:16:51;;;;;;;8.55;7.47;;;;;;;;;;5033440;28;20204;-80
2021/11/28 07:19:18;;;;;;;9.30;6.13;;;;;;;;;;5033472;28;20179;-78
2021/11/28 07:21:44;;;;;;;8.02;6.45;;;;;;;;;;5034940;28;20768;-78
2021/11/28 07:24:10;;;;;;;6.75;5.78;;;;;;;;;;5035058;28;20189;-78
2021/11/28 07:26:36;;;;;;;9.82;7.57;;;;;;;;;;5033659;28;20216;-76
2021/11/28 07:29:02;;;;;;;8.40;6.32;;;;;;;;;;5034779;28;20177;-78
2021/11/28 07:31:28;;;;;;;10.23;6.88;;;;;;;;;;5034491;28;20602;-77
2021/11/28 07:33:54;;;;;;;10.77;7.90;;;;;;;;;;5034740;28;20177;-77
2021/11/28 07:36:20;;;;;;;11.88;7.20;;;;;;;;;;5034636;28;20417;-77
2021/11/28 07:38:46;;;;;;;19.20;8.40;;;;;;;;;;5034500;28;20180;-78
2021/11/28 07:41:12;;;;;;;14.50;7.75;;;;;;;;;;5032962;28;20284;-81
2021/11/28 07:43:38;;;;;;;13.00;7.38;;;;;;;;;;5034687;28;20173;-80
2021/11/28 07:46:04;;;;;;;10.55;7.13;;;;;;;;;;5033287;28;20193;-78
2021/11/28 07:48:31;;;;;;;12.02;7.72;;;;;;;;;;5034685;28;20180;-79
2021/11/28 07:50:58;;;;;;;11.02;7.90;;;;;;;;;;5034012;28;20225;-81
2021/11/28 07:53:25;;;;;;;7.88;6.57;;;;;;;;;;5033254;28;20662;-80
2021/11/28 07:55:51;;;;;;;9.35;7.43;;;;;;;;;;5034455;28;20228;-80
2021/11/28 07:58:17;;;;;;;11.75;8.70;;;;;;;;;;5033087;28;20641;-78
2021/11/28 08:00:43;;;;;;;10.35;7.60;;;;;;;;;;5034043;28;20199;-77
2021/11/28 08:03:09;;;;;;;14.40;9.10;;;;;;;;;;5034081;28;20239;-80
2021/11/28 08:05:35;;;;;;;16.70;7.47;;;;;;;;;;5034153;28;20642;-79
2021/11/28 08:08:01;;;;;;;12.07;7.40;;;;;;;;;;5034098;28;20658;-76
2021/11/28 08:10:27;;;;;;;12.27;8.27;;;;;;;;;;5033597;28;20199;-78
2021/11/28 08:12:53;;;;;;;12.18;7.57;;;;;;;;;;5034183;28;20443;-78
2021/11/28 08:15:19;;;;;;;14.27;8.70;;;;;;;;;;5034016;28;20177;-78
2021/11/28 08:17:47;;;;;;;14.27;8.30;;;;;;;;;;5033790;28;20673;-81
2021/11/28 08:20:13;;;;;;;9.18;7.90;;;;;;;;;;5033619;28;20205;-80
2021/11/28 08:22:40;;;;;;;10.70;7.60;;;;;;;;;;5033960;28;20215;-77
2021/11/28 08:25:07;;;;;;;13.55;9.15;;;;;;;;;;5033819;28;20181;-78
2021/11/28 08:27:33;;;;;;;10.55;8.43;;;;;;;;;;5036059;28;20209;-78
2021/11/28 08:30:03;;;;;;;12.60;9.20;;;;;;;;;;5051743;28;20316;-76
2021/11/28 08:32:29;;;;;;;11.05;8.52;;;;;;;;;;5053625;28;20165;-78
2021/11/28 08:34:55;;;;;;;11.40;8.10;;;;;;;;;;5053517;28;20267;-76
2021/11/28 08:37:21;;;;;;;12.90;8.50;;;;;;;;;;5053391;28;20464;-78
2021/11/28 08:39:48;;;;;;;13.50;8.50;;;;;;;;;;5051785;28;20187;-77
2021/11/28 08:42:14;;;;;;;12.45;9.15;;;;;;;;;;5053496;28;20627;-79
2021/11/28 08:44:40;;;;;;;11.73;8.52;;;;;;;;;;5053427;28;20298;-79
2021/11/28 08:47:06;;;;;;;15.50;9.80;;;;;;;;;;5053322;28;20218;-76
2021/11/28 08:49:32;;;;;;;13.50;9.52;;;;;;;;;;5053191;28;20708;-80
2021/11/28 08:51:59;;;;;;;16.73;9.40;;;;;;;;;;5053375;28;20243;-77
2021/11/28 08:54:29;;;;;;;13.90;9.10;;;;;;;;;;5052067;28;20188;-76
2021/11/28 08:56:55;;;;;;;29.00;11.32;;;;;;;;;;5053606;28;20577;-79
2021/11/28 08:59:21;;;;;;;24.88;16.73;;;;;;;;;;5052954;28;20253;-77
2021/11/28 09:01:47;;;;;;;24.92;18.70;;;;;;;;;;5035317;28;20201;-76
2021/11/28 09:04:13;;;;;;;16.50;12.33;;;;;;;;;;5048393;28;20187;-76
2021/11/28 09:06:40;;;;;;;17.42;11.20;;;;;;;;;;5035664;28;20460;-78
2021/11/28 09:09:06;;;;;;;20.50;11.68;;;;;;;;;;5033222;28;20582;-78
2021/11/28 09:11:32;;;;;;;13.85;9.38;;;;;;;;;;5032733;28;20327;-75
2021/11/28 09:13:58;;;;;;;17.42;10.80;;;;;;;;;;5033025;28;20646;-77
2021/11/28 09:16:23;;;;;;;14.80;10.25;;;;;;;;;;5033306;28;20182;-77
2021/11/28 09:18:57;;;;;;;17.63;11.48;;;;;;;;;;5033206;28;20178;-78
2021/11/28 09:21:23;;;;;;;17.38;10.52;;;;;;;;;;5032650;28;20205;-77
2021/11/28 09:26:34;;;;;;;17.27;10.68;;;;;;;;;;5033286;28;20270;-78
2021/11/28 09:29:01;;;;;;;19.92;12.35;;;;;;;;;;5032943;28;20184;-77
2021/11/28 09:31:29;;;;;;;16.67;11.60;;;;;;;;;;5032521;28;20280;-79
2021/11/28 09:33:55;;;;;;;18.30;11.82;;;;;;;;;;5032728;28;20268;-79
2021/11/28 09:36:23;;;;;;;19.00;11.77;;;;;;;;;;5032856;28;20753;-77
2021/11/28 09:38:49;;;;;;;18.77;12.40;;;;;;;;;;5032741;28;20177;-78
2021/11/28 09:41:16;;;;;;;17.43;9.90;;;;;;;;;;5033096;28;20201;-79
2021/11/28 09:43:48;;;;;;;19.13;11.30;;;;;;;;;;5036734;28;20420;-77
2021/11/28 09:46:14;;;;;;;19.08;11.90;;;;;;;;;;5036772;28;20231;-76
2021/11/28 09:48:40;;;;;;;20.42;11.68;;;;;;;;;;5036727;28;20177;-76
2021/11/28 09:51:07;;;;;;;16.42;11.23;;;;;;;;;;5036236;28;20197;-75
2021/11/28 09:53:34;;;;;;;20.08;11.18;;;;;;;;;;5036746;28;20185;-76
2021/11/28 09:56:01;;;;;;;18.00;12.00;;;;;;;;;;5035272;28;20587;-79
2021/11/28 09:58:28;;;;;;;16.48;11.15;;;;;;;;;;5036460;28;20177;-79
2021/11/28 10:00:55;;;;;;;16.65;10.70;;;;;;;;;;5036083;28;20227;-79
2021/11/28 10:03:22;;;;;;;16.85;11.52;;;;;;;;;;5035412;28;20247;-79
2021/11/28 10:05:50;;;;;;;14.20;11.13;;;;;;;;;;5036626;28;20166;-77
2021/11/28 10:08:16;;;;;;;18.75;11.18;;;;;;;;;;5036448;28;20216;-79
2021/11/28 10:10:44;;;;;;;14.82;10.25;;;;;;;;;;5035891;28;20201;-80
2021/11/28 10:13:12;;;;;;;14.75;10.45;;;;;;;;;;5036351;28;20230;-77
2021/11/28 10:15:38;;;;;;;23.98;12.50;;;;;;;;;;5036353;28;20262;-76
2021/11/28 10:18:09;;;;;;;18.97;11.73;;;;;;;;;;5035972;28;20233;-78
2021/11/28 10:20:38;;;;;;;17.27;11.15;;;;;;;;;;5035800;28;20439;-78
2021/11/28 10:23:04;;;;;;;17.00;12.38;;;;;;;;;;5036084;28;20166;-78
2021/11/28 10:25:31;;;;;;;19.63;12.40;;;;;;;;;;5035878;28;20273;-77
2021/11/28 10:27:59;;;;;;;20.08;11.80;;;;;;;;;;5035905;28;20455;-77
2021/11/28 10:30:28;;;;;;;22.58;13.40;;;;;;;;;;5035483;28;20197;-79
2021/11/28 10:32:54;;;;;;;21.10;12.13;;;;;;;;;;5035983;28;20173;-77
2021/11/28 10:35:21;;;;;;;21.55;13.95;;;;;;;;;;5035817;28;20173;-76
2021/11/28 10:37:48;;;;;;;26.85;18.08;;;;;;;;;;5035733;28;20176;-77
2021/11/28 10:40:19;;;;;;;25.98;14.10;;;;;;;;;;5035196;28;20203;-78
2021/11/28 10:42:48;;;;;;;19.75;14.43;;;;;;;;;;5035708;28;20180;-78
2021/11/28 10:45:16;;;;;;;21.02;12.85;;;;;;;;;;5035715;28;20170;-77
2021/11/28 10:47:52;;;;;;;31.67;15.02;;;;;;;;;;5043522;28;20205;-77
2021/11/28 10:50:20;;;;;;;24.95;14.32;;;;;;;;;;5043523;28;20198;-77
2021/11/28 10:52:48;;;;;;;23.33;13.75;;;;;;;;;;5043323;28;20245;-76
2021/11/28 10:55:19;;;;;;;28.00;14.32;;;;;;;;;;5037328;28;20202;-78
2021/11/28 10:57:46;;;;;;;25.98;13.73;;;;;;;;;;5050785;28;20654;-76
2021/11/28 11:00:13;;;;;;;21.33;13.48;;;;;;;;;;5043162;28;20208;-78
2021/11/28 11:02:42;;;;;;;27.95;14.10;;;;;;;;;;5035276;28;20186;-79
2021/11/28 11:05:09;;;;;;;15.23;12.25;;;;;;;;;;5034222;28;20234;-78
2021/11/28 11:07:48;;;;;;;21.45;12.30;;;;;;;;;;5035326;28;20263;-80
2021/11/28 11:10:29;;;;;;;18.55;12.60;;;;;;;;;;5034762;28;20185;-79
2021/11/28 11:12:55;;;;;;;29.52;14.75;;;;;;;;;;5033772;28;20231;-78
2021/11/28 11:15:36;;;;;;;22.40;13.00;;;;;;;;;;5042905;28;20176;-77
2021/11/28 11:18:03;;;;;;;27.52;12.95;;;;;;;;;;5043698;28;20252;-78
2021/11/28 11:20:30;;;;;;;20.77;13.93;;;;;;;;;;5048782;28;20611;-77
2021/11/28 11:22:57;;;;;;;28.30;14.40;;;;;;;;;;5042210;28;20231;-76
2021/11/28 11:25:36;;;;;;;26.67;14.82;;;;;;;;;;5043840;28;20526;-78
2021/11/28 11:28:13;;;;;;;27.85;16.35;;;;;;;;;;5044260;28;20204;-77
2021/11/28 11:30:39;;;;;;;35.28;17.80;;;;;;;;;;5045033;28;20283;-79
2021/11/28 11:33:07;;;;;;;37.38;18.40;;;;;;;;;;5044090;28;20250;-79
2021/11/28 11:35:34;;;;;;;37.78;19.90;;;;;;;;;;5042624;28;20185;-79
2021/11/28 11:38:01;;;;;;;32.60;21.52;;;;;;;;;;5045872;28;20575;-78
2021/11/28 11:40:27;;;;;;;35.78;21.17;;;;;;;;;;5046863;28;20200;-79
2021/11/28 11:42:54;;;;;;;30.92;17.38;;;;;;;;;;5044805;28;20272;-78
2021/11/28 11:45:22;;;;;;;33.20;18.02;;;;;;;;;;5048745;28;20177;-79
2021/11/28 11:47:48;;;;;;;32.78;19.42;;;;;;;;;;5054524;28;20208;-77
2021/11/28 11:50:20;;;;;;;30.23;18.42;;;;;;;;;;5054096;28;20788;-76
2021/11/28 11:52:46;;;;;;;33.25;18.45;;;;;;;;;;5054137;28;20184;-77
2021/11/28 11:55:17;;;;;;;30.88;19.13;;;;;;;;;;5054194;28;20231;-79
2021/11/28 11:57:43;;;;;;;32.47;19.10;;;;;;;;;;5054129;28;20187;-79
2021/11/28 12:00:28;;;;;;;31.27;18.75;;;;;;;;;;5053696;28;20197;-77
2021/11/28 12:02:54;;;;;;;27.30;18.52;;;;;;;;;;5052231;28;20691;-76
2021/11/28 12:05:26;;;;;;;36.58;20.88;;;;;;;;;;5054101;28;20635;-78
2021/11/28 12:07:53;;;;;;;28.40;18.30;;;;;;;;;;5053809;28;20587;-78
2021/11/28 12:10:25;;;;;;;29.23;17.98;;;;;;;;;;5050190;28;20206;-79
2021/11/28 12:12:51;;;;;;;31.30;19.73;;;;;;;;;;5042550;28;20191;-78
2021/11/28 12:15:20;;;;;;;27.27;17.70;;;;;;;;;;5041417;28;20249;-76
2021/11/28 12:17:47;;;;;;;28.38;17.95;;;;;;;;;;5050851;28;20559;-79
2021/11/28 12:20:15;;;;;;;25.05;16.92;;;;;;;;;;5053493;28;20197;-76
2021/11/28 12:22:45;;;;;;;27.95;17.13;;;;;;;;;;5053729;28;20204;-78
2021/11/28 12:25:30;;;;;;;26.08;16.90;;;;;;;;;;5053622;28;20596;-76
2021/11/28 12:27:56;;;;;;;28.35;16.55;;;;;;;;;;5053224;28;20211;-78
2021/11/28 12:30:35;;;;;;;21.77;16.08;;;;;;;;;;5051695;28;20288;-78
2021/11/28 12:33:01;;;;;;;22.25;14.40;;;;;;;;;;5053108;28;20231;-76
2021/11/28 12:35:36;;;;;;;24.60;15.43;;;;;;;;;;5053481;28;20185;-77
2021/11/28 12:38:03;;;;;;;20.48;14.43;;;;;;;;;;5053506;28;20912;-79
2021/11/28 12:40:33;;;;;;;24.02;14.05;;;;;;;;;;5051578;28;20254;-76
2021/11/28 12:43:13;;;;;;;17.17;12.65;;;;;;;;;;5053368;28;20261;-78
2021/11/28 12:45:40;;;;;;;21.58;14.48;;;;;;;;;;5053325;28;20179;-77
2021/11/28 12:48:26;;;;;;;20.67;14.15;;;;;;;;;;5051927;28;20701;-76
2021/11/28 12:51:18;;;;;;;18.15;13.63;;;;;;;;;;5052932;28;20281;-78
2021/11/28 12:53:44;;;;;;;20.55;14.70;;;;;;;;;;5052170;28;20199;-77
2021/11/28 12:56:26;;;;;;;20.05;13.48;;;;;;;;;;5053488;28;20177;-76
2021/11/28 12:59:11;;;;;;;20.92;15.10;;;;;;;;;;5052915;28;20586;-77
2021/11/28 13:01:46;;;;;;;20.35;13.52;;;;;;;;;;5053263;28;20197;-78
2021/11/28 13:04:31;;;;;;;22.33;13.20;;;;;;;;;;5051825;28;20180;-76
2021/11/28 13:07:16;;;;;;;16.55;12.68;;;;;;;;;;5053090;28;20233;-78
2021/11/28 13:09:42;;;;;;;17.90;12.75;;;;;;;;;;5052759;28;20165;-76
2021/11/28 13:12:08;;;;;;;21.67;13.68;;;;;;;;;;5053013;28;20248;-78
2021/11/28 13:14:34;;;;;;;20.63;15.60;;;;;;;;;;5052880;28;20208;-80
2021/11/28 13:17:00;;;;;;;23.83;15.98;;;;;;;;;;5052823;28;20611;-76
2021/11/28 13:19:26;;;;;;;22.75;15.02;;;;;;;;;;5051245;28;20212;-79
2021/11/28 13:21:52;;;;;;;21.05;13.77;;;;;;;;;;5052698;28;20228;-78
2021/11/28 13:24:27;;;;;;;21.35;15.25;;;;;;;;;;5053058;28;20639;-76
2021/11/28 13:26:55;;;;;;;20.08;14.75;;;;;;;;;;5052869;28;20592;-78
2021/11/28 13:29:21;;;;;;;23.42;14.88;;;;;;;;;;5052599;28;20555;-78
2021/11/28 13:31:48;;;;;;;22.13;15.30;;;;;;;;;;5052847;28;20193;-77
2021/11/28 13:34:14;;;;;;;26.17;16.17;;;;;;;;;;5052815;28;20536;-76
2021/11/28 13:36:45;;;;;;;21.63;15.65;;;;;;;;;;5051493;28;20189;-78
2021/11/28 13:39:13;;;;;;;17.75;13.68;;;;;;;;;;5052658;28;20181;-79
2021/11/28 13:41:39;;;;;;;21.88;14.27;;;;;;;;;;5052546;28;20228;-78
2021/11/28 13:44:10;;;;;;;24.05;14.85;;;;;;;;;;5052837;28;20724;-78
2021/11/28 13:46:38;;;;;;;19.73;14.90;;;;;;;;;;5052829;28;20212;-77
2021/11/28 13:49:05;;;;;;;17.98;13.63;;;;;;;;;;5052717;28;20234;-76
2021/11/28 13:51:42;;;;;;;21.00;14.55;;;;;;;;;;5052465;28;20215;-77
2021/11/28 13:54:09;;;;;;;22.30;13.80;;;;;;;;;;5052929;28;20177;-78
2021/11/28 13:56:43;;;;;;;20.83;14.82;;;;;;;;;;5052998;28;20181;-76
2021/11/28 13:59:11;;;;;;;26.17;19.90;;;;;;;;;;5052572;28;20249;-76
2021/11/28 14:01:37;;;;;;;20.30;14.75;;;;;;;;;;5052509;28;20548;-77
2021/11/28 14:04:17;;;;;;;20.67;14.05;;;;;;;;;;5052529;28;20184;-79
2021/11/28 14:06:43;;;;;;;20.02;14.27;;;;;;;;;;5052456;28;20200;-76
2021/11/28 14:09:11;;;;;;;20.45;13.40;;;;;;;;;;5052275;28;20226;-77
2021/11/28 14:11:48;;;;;;;22.67;15.35;;;;;;;;;;5051225;28;20216;-77
2021/11/28 14:14:15;;;;;;;24.55;15.25;;;;;;;;;;5052489;28;20203;-77
2021/11/28 14:16:47;;;;;;;19.58;14.73;;;;;;;;;;5052434;28;20282;-77
2021/11/28 14:19:13;;;;;;;20.85;14.57;;;;;;;;;;5052020;28;20661;-78
2021/11/28 14:21:39;;;;;;;25.73;15.10;;;;;;;;;;5052440;28;20193;-78
2021/11/28 14:24:24;;;;;;;23.38;16.05;;;;;;;;;;5052292;28;20181;-77
2021/11/28 14:26:50;;;;;;;23.27;14.30;;;;;;;;;;5052173;28;20213;-79
2021/11/28 14:29:25;;;;;;;22.52;14.73;;;;;;;;;;5055744;28;20572;-77
2021/11/28 14:31:55;;;;;;;25.52;15.25;;;;;;;;;;5056046;28;20544;-78
2021/11/28 14:34:21;;;;;;;18.55;13.35;;;;;;;;;;5055707;28;20177;-78
2021/11/28 14:36:47;;;;;;;21.55;14.20;;;;;;;;;;5055914;28;20193;-78
2021/11/28 14:39:13;;;;;;;23.85;14.95;;;;;;;;;;5054058;28;20545;-76